createdAt,value
2023-05-15T00:02:55.081Z,85.99
2023-05-15T00:07:58.035Z,85.52
2023-05-15T00:12:54.892Z,86.90
2023-05-15T00:17:54.844Z,85.38
2023-05-15T00:22:54.716Z,85.01
2023-05-15T00:27:54.781Z,85.72
2023-05-15T00:32:54.689Z,84.15
2023-05-15T00:37:54.561Z,84.25
2023-05-15T00:42:54.488Z,84.39
2023-05-15T00:47:54.443Z,84.39
2023-05-15T00:52:54.316Z,84.64
2023-05-15T00:57:54.287Z,85.46
2023-05-15T01:02:54.235Z,84.25
2023-05-15T01:07:57.172Z,84.99
2023-05-15T01:12:54.067Z,87.08
2023-05-15T01:17:54.130Z,85.25
2023-05-15T01:22:53.932Z,84.64
2023-05-15T01:27:53.887Z,84.37
2023-05-15T01:32:53.793Z,84.72
2023-05-15T01:37:53.795Z,85.85
2023-05-15T01:42:53.660Z,85.78
2023-05-15T01:47:53.707Z,86.09
2023-05-15T01:52:53.518Z,86.87
2023-05-15T01:57:53.508Z,86.71
2023-05-15T02:02:53.482Z,86.19
2023-05-15T02:07:56.396Z,84.92
2023-05-15T02:12:53.269Z,85.33
2023-05-15T02:17:53.339Z,86.33
2023-05-15T02:22:53.215Z,86.33
2023-05-15T02:27:53.359Z,85.99
2023-05-15T02:32:53.209Z,85.33
2023-05-15T02:37:53.045Z,85.58
2023-05-15T02:42:52.953Z,86.38
2023-05-15T02:47:52.948Z,86.99
2023-05-15T02:52:52.786Z,87.22
2023-05-15T02:57:52.761Z,87.90
2023-05-15T03:02:52.670Z,89.13
2023-05-15T03:07:55.665Z,88.84
2023-05-15T03:12:52.538Z,87.98
2023-05-15T03:17:52.460Z,87.77
2023-05-15T03:22:52.350Z,89.15
2023-05-15T03:27:52.359Z,88.04
2023-05-15T03:32:52.316Z,87.32
2023-05-15T03:37:52.459Z,87.18
2023-05-15T03:42:52.088Z,86.30
2023-05-15T03:47:52.117Z,86.02
2023-05-15T03:52:51.940Z,85.44
2023-05-15T03:57:51.956Z,85.47
2023-05-15T04:02:51.971Z,87.04
2023-05-15T04:07:54.828Z,87.29
2023-05-15T04:12:51.709Z,87.94
2023-05-15T04:17:51.711Z,87.90
2023-05-15T04:22:51.575Z,87.35
2023-05-15T04:27:51.562Z,86.79
2023-05-15T04:32:51.556Z,87.84
2023-05-15T04:37:51.411Z,87.85
2023-05-15T04:42:51.317Z,89.00
2023-05-15T04:47:51.440Z,89.17
2023-05-15T04:52:51.181Z,88.31
2023-05-15T04:57:51.150Z,88.06
2023-05-15T05:02:51.101Z,86.55
2023-05-15T05:07:54.023Z,85.45
2023-05-15T05:12:50.965Z,85.28
2023-05-15T05:17:50.969Z,84.50
2023-05-15T05:22:50.800Z,85.53
2023-05-15T05:27:50.776Z,87.00
2023-05-15T05:32:50.762Z,85.45
2023-05-15T05:37:50.671Z,83.63
2023-05-15T05:42:50.524Z,83.78
2023-05-15T05:47:50.627Z,80.56
2023-05-15T05:52:50.377Z,78.45
2023-05-15T05:57:50.352Z,75.67
2023-05-15T06:02:50.358Z,74.27
2023-05-15T06:07:53.223Z,70.76
2023-05-15T06:12:50.139Z,75.40
2023-05-15T06:17:50.156Z,70.39
2023-05-15T06:22:50.005Z,64.84
2023-05-15T06:27:50.015Z,57.64
2023-05-15T06:32:49.944Z,55.45
2023-05-15T06:37:49.896Z,52.32
2023-05-15T06:42:49.725Z,51.77
2023-05-15T06:47:49.783Z,50.60
2023-05-15T06:52:49.596Z,50.15
2023-05-15T06:57:49.659Z,49.87
2023-05-15T07:02:50.466Z,48.11
2023-05-15T07:07:52.462Z,48.95
2023-05-15T07:12:49.362Z,47.49
2023-05-15T07:17:49.431Z,48.31
2023-05-15T07:22:56.478Z,48.93
2023-05-15T07:27:50.280Z,46.41
2023-05-15T07:32:49.226Z,46.41
2023-05-15T07:37:49.223Z,46.19
2023-05-15T07:42:49.302Z,44.53
2023-05-15T07:47:49.055Z,44.31
2023-05-15T07:52:48.859Z,44.41
2023-05-15T07:57:53.407Z,45.03
2023-05-15T08:02:48.970Z,45.25
2023-05-15T08:07:52.007Z,49.22
2023-05-15T08:12:48.650Z,50.10
2023-05-15T08:17:48.602Z,50.77
2023-05-15T08:22:48.520Z,50.74
2023-05-15T08:27:48.507Z,52.92
2023-05-15T08:32:48.443Z,51.62
2023-05-15T08:37:48.349Z,55.22
2023-05-15T08:42:48.236Z,53.32
2023-05-15T08:47:48.268Z,53.57
2023-05-15T08:52:48.181Z,53.45
2023-05-15T08:57:48.122Z,50.67
2023-05-15T09:02:48.290Z,52.12
2023-05-15T09:07:50.968Z,50.67
2023-05-15T09:12:47.890Z,51.21
2023-05-15T09:17:47.922Z,53.17
2023-05-15T09:22:47.783Z,53.37
2023-05-15T09:27:47.730Z,49.94
2023-05-15T09:32:47.644Z,49.58
2023-05-15T09:37:47.574Z,48.49
2023-05-15T09:42:47.496Z,48.47
2023-05-15T09:47:47.571Z,46.73
2023-05-15T09:52:47.357Z,46.19
2023-05-15T09:57:47.368Z,43.29
2023-05-15T10:02:47.250Z,44.38
2023-05-15T10:07:50.142Z,43.55
2023-05-15T10:12:48.328Z,43.75
2023-05-15T10:17:47.098Z,44.75
2023-05-15T10:22:46.923Z,45.59
2023-05-15T10:27:47.040Z,46.13
2023-05-15T10:32:46.857Z,44.99
2023-05-15T10:37:46.863Z,43.39
2023-05-15T10:42:46.783Z,44.85
2023-05-15T10:47:46.758Z,45.17
2023-05-15T10:52:46.585Z,44.13
2023-05-15T10:57:46.590Z,44.21
2023-05-15T11:02:46.442Z,44.13
2023-05-15T11:07:49.407Z,44.97
2023-05-15T11:12:46.274Z,47.56
2023-05-15T11:17:46.286Z,47.24
2023-05-15T11:22:46.181Z,47.34
2023-05-15T11:27:46.396Z,46.01
2023-05-15T11:32:46.238Z,46.27
2023-05-15T11:37:46.060Z,46.35
2023-05-15T11:42:45.871Z,48.99
2023-05-15T11:47:45.893Z,49.72
2023-05-15T11:52:45.773Z,48.32
2023-05-15T11:57:45.699Z,48.70
2023-05-15T12:02:45.677Z,47.91
2023-05-15T12:07:48.598Z,47.24
2023-05-15T12:12:45.510Z,48.91
2023-05-15T12:17:45.534Z,47.31
2023-05-15T12:22:45.360Z,46.08
2023-05-15T12:27:45.421Z,43.77
2023-05-15T12:32:45.302Z,44.61
2023-05-15T12:37:45.220Z,48.05
2023-05-15T12:42:45.133Z,45.90
2023-05-15T12:47:45.375Z,45.06
2023-05-15T12:52:45.035Z,44.27
2023-05-15T12:57:44.996Z,44.18
2023-05-15T13:02:44.940Z,41.89
2023-05-15T13:07:47.807Z,42.72
2023-05-15T13:12:44.747Z,41.93
2023-05-15T13:17:44.769Z,41.66
2023-05-15T13:22:44.622Z,42.89
2023-05-15T13:27:44.590Z,44.81
2023-05-15T13:32:44.551Z,43.01
2023-05-15T13:37:44.473Z,43.51
2023-05-15T13:42:44.318Z,40.98
2023-05-15T13:47:44.374Z,38.52
2023-05-15T13:52:44.241Z,39.42
2023-05-15T13:57:44.269Z,42.29
2023-05-15T14:02:44.135Z,43.51
2023-05-15T14:07:47.098Z,41.74
2023-05-15T14:12:44.003Z,42.83
2023-05-15T14:17:44.028Z,42.61
2023-05-15T14:22:43.934Z,42.97
2023-05-15T14:27:43.861Z,42.95
2023-05-15T14:32:43.773Z,42.03
2023-05-15T14:37:43.679Z,39.84
2023-05-15T14:42:43.588Z,38.50
2023-05-15T14:47:43.568Z,38.17
2023-05-15T14:52:43.402Z,36.91
2023-05-15T14:57:43.612Z,37.29
2023-05-15T15:02:43.394Z,36.99
2023-05-15T15:07:46.302Z,37.35
2023-05-15T15:12:43.155Z,37.77
2023-05-15T15:17:43.179Z,40.42
2023-05-15T15:22:43.086Z,41.82
2023-05-15T15:27:43.005Z,39.35
2023-05-15T15:32:42.928Z,38.10
2023-05-15T15:37:42.874Z,39.78
2023-05-15T15:42:42.787Z,43.07
2023-05-15T15:47:42.773Z,46.09
2023-05-15T15:52:42.672Z,49.93
2023-05-15T15:57:42.619Z,49.49
2023-05-15T16:02:42.610Z,48.41
2023-05-15T16:07:45.696Z,48.79
2023-05-15T16:12:42.731Z,48.46
2023-05-15T16:17:42.530Z,47.61
2023-05-15T16:22:42.408Z,48.38
2023-05-15T16:27:42.604Z,48.26
2023-05-15T16:32:42.215Z,48.89
2023-05-15T16:37:42.147Z,50.29
2023-05-15T16:42:42.006Z,51.42
2023-05-15T16:47:42.087Z,53.25
2023-05-15T16:52:41.901Z,55.35
2023-05-15T16:57:41.832Z,53.95
2023-05-15T17:02:41.880Z,56.82
2023-05-15T17:07:44.732Z,58.61
2023-05-15T17:12:41.600Z,59.17
2023-05-15T17:17:41.634Z,58.76
2023-05-15T17:22:41.460Z,59.67
2023-05-15T17:27:41.510Z,60.81
2023-05-15T17:32:41.426Z,61.65
2023-05-15T17:37:41.293Z,61.61
2023-05-15T17:42:41.236Z,60.96
2023-05-15T17:47:41.169Z,61.89
2023-05-15T17:52:41.075Z,61.25
2023-05-15T17:57:41.074Z,61.33
2023-05-15T18:02:40.957Z,61.76
2023-05-15T18:07:43.898Z,61.53
2023-05-15T18:12:40.814Z,62.37
2023-05-15T18:17:40.781Z,61.69
2023-05-15T18:22:40.671Z,62.87
2023-05-15T18:27:40.972Z,60.85
2023-05-15T18:32:40.603Z,61.59
2023-05-15T18:37:40.567Z,60.85
2023-05-15T18:42:40.438Z,61.86
2023-05-15T18:47:40.451Z,61.39
2023-05-15T18:52:40.409Z,61.99
2023-05-15T18:57:40.439Z,62.83
2023-05-15T19:02:40.442Z,63.13
2023-05-15T19:07:43.274Z,63.79
2023-05-15T19:12:40.072Z,63.73
2023-05-15T19:17:40.068Z,62.68
2023-05-15T19:22:39.940Z,63.42
2023-05-15T19:27:39.928Z,63.19
2023-05-15T19:32:39.962Z,62.79
2023-05-15T19:37:40.525Z,62.88
2023-05-15T19:42:39.668Z,63.22
2023-05-15T19:47:39.656Z,63.62
2023-05-15T19:52:39.509Z,63.65
2023-05-15T19:57:39.547Z,63.85
2023-05-15T20:02:39.443Z,63.65
2023-05-15T20:07:42.387Z,63.25
2023-05-15T20:12:39.356Z,64.09
2023-05-15T20:17:39.280Z,63.78
2023-05-15T20:22:39.117Z,62.64
2023-05-15T20:27:39.290Z,63.89
2023-05-15T20:32:39.207Z,63.25
2023-05-15T20:37:39.052Z,63.65
2023-05-15T20:42:38.924Z,65.20
2023-05-15T20:47:40.019Z,65.30
2023-05-15T20:52:38.730Z,66.04
2023-05-15T20:57:38.685Z,66.78
2023-05-15T21:02:38.627Z,66.91
2023-05-15T21:07:41.583Z,67.22
2023-05-15T21:12:38.479Z,68.49
2023-05-15T21:17:38.450Z,67.79
2023-05-15T21:22:38.306Z,67.14
2023-05-15T21:27:38.291Z,66.74
2023-05-15T21:32:38.284Z,67.05
2023-05-15T21:37:38.186Z,67.58
2023-05-15T21:42:38.040Z,67.58
2023-05-15T21:47:38.065Z,67.51
2023-05-15T21:52:37.898Z,67.92
2023-05-15T21:57:37.990Z,68.15
2023-05-15T22:02:37.904Z,68.02
2023-05-15T22:07:40.737Z,67.41
2023-05-15T22:12:37.672Z,68.15
2023-05-15T22:17:37.770Z,66.80
2023-05-15T22:22:37.625Z,67.31
2023-05-15T22:27:37.593Z,67.24
2023-05-15T22:32:37.565Z,68.35
2023-05-15T22:37:37.478Z,68.66
2023-05-15T22:42:37.316Z,68.49
2023-05-15T22:47:37.361Z,68.59
2023-05-15T22:52:37.229Z,68.49
2023-05-15T22:57:37.231Z,69.74
2023-05-15T23:02:37.110Z,69.43
2023-05-15T23:07:40.427Z,69.64
2023-05-15T23:12:36.990Z,70.99
2023-05-15T23:17:36.969Z,70.15
2023-05-15T23:22:36.773Z,70.28
2023-05-15T23:27:36.766Z,70.15
2023-05-15T23:32:36.687Z,70.79
2023-05-15T23:37:36.628Z,70.89
2023-05-15T23:42:36.521Z,71.20
2023-05-15T23:47:36.608Z,71.09
2023-05-15T23:52:36.401Z,70.79
2023-05-15T23:57:36.430Z,70.76
